Time;durP1;ratioP1;P1;durP2;ratioP2;P2;SDS_P1;SDS_P2;PMS_P1;PMS_P2;Temp;Humidity;BMP_temperature;BMP_pressure;BME280_temperature;BME280_humidity;BME280_pressure;Samples;Min_cycle;Max_cycle;Signal;HPM_P1;HPM_P2
2021/04/25 00:00:21;;;;;;;2.08;1.60;;;4.40;99.90;;;;;;4918159;29;20218;-66
2021/04/25 00:02:48;;;;;;;4.57;2.33;;;4.40;99.90;;;;;;4917992;29;20182;-66
2021/04/25 00:05:17;;;;;;;4.10;2.80;;;4.50;99.90;;;;;;4918063;29;20186;-66
2021/04/25 00:07:46;;;;;;;3.17;2.10;;;4.60;99.90;;;;;;4917971;29;20213;-66
2021/04/25 00:10:14;;;;;;;4.05;1.95;;;4.50;99.90;;;;;;4918119;29;20189;-65
2021/04/25 00:12:43;;;;;;;2.13;1.90;;;4.60;99.90;;;;;;4917777;29;20177;-65
2021/04/25 00:15:13;;;;;;;3.00;2.00;;;4.70;99.90;;;;;;4917847;29;20201;-65
2021/04/25 00:17:40;;;;;;;2.13;1.70;;;4.80;99.90;;;;;;4917475;29;20217;-65
2021/04/25 00:20:09;;;;;;;3.08;2.75;;;4.90;99.90;;;;;;4917724;29;20194;-64
2021/04/25 00:22:36;;;;;;;1.95;1.77;;;5.00;99.90;;;;;;4917994;29;20541;-65
2021/04/25 00:25:06;;;;;;;3.28;1.98;;;5.00;99.90;;;;;;4917554;29;20253;-66
2021/04/25 00:27:33;;;;;;;3.78;3.00;;;5.10;99.90;;;;;;4918280;29;20227;-65
2021/04/25 00:30:00;;;;;;;3.22;2.92;;;5.10;99.90;;;;;;4916441;29;20198;-66
2021/04/25 00:32:27;;;;;;;4.32;2.58;;;5.00;99.90;;;;;;4917817;29;20663;-65
2021/04/25 00:34:55;;;;;;;2.03;1.70;;;5.00;99.90;;;;;;4917310;29;20721;-66
2021/04/25 00:37:22;;;;;;;4.00;2.60;;;5.10;99.90;;;;;;4917482;29;20209;-65
2021/04/25 00:39:49;;;;;;;3.25;2.65;;;5.20;99.90;;;;;;4917789;29;20245;-63
2021/04/25 00:42:17;;;;;;;4.20;1.90;;;5.30;99.90;;;;;;4917821;29;20525;-65
2021/04/25 00:44:45;;;;;;;3.85;2.80;;;5.30;99.90;;;;;;4917606;29;20196;-65
2021/04/25 00:47:13;;;;;;;3.33;3.03;;;5.20;99.90;;;;;;4917711;29;20824;-68
2021/04/25 00:49:40;;;;;;;2.55;1.95;;;5.10;99.90;;;;;;4916421;29;20571;-65
2021/04/25 00:52:09;;;;;;;3.35;2.50;;;5.00;99.90;;;;;;4917746;29;20186;-66
2021/04/25 00:54:37;;;;;;;4.35;2.03;;;5.10;99.90;;;;;;4917601;29;20212;-65
2021/04/25 00:57:05;;;;;;;2.75;1.92;;;5.20;99.90;;;;;;4917346;29;20204;-64
2021/04/25 00:59:34;;;;;;;2.92;1.98;;;5.20;99.90;;;;;;4917496;29;20639;-64
2021/04/25 01:02:01;;;;;;;2.88;2.35;;;5.30;99.90;;;;;;4917576;29;20194;-65
2021/04/25 01:04:28;;;;;;;5.55;2.22;;;5.30;99.90;;;;;;4917141;29;20195;-66
2021/04/25 01:06:56;;;;;;;2.95;2.63;;;5.30;99.90;;;;;;4917737;29;20197;-67
2021/04/25 01:09:23;;;;;;;5.78;1.88;;;5.20;99.90;;;;;;4917271;29;20205;-65
2021/04/25 01:11:50;;;;;;;2.20;2.00;;;5.20;99.90;;;;;;4917087;29;20585;-66
2021/04/25 01:14:17;;;;;;;2.38;1.75;;;5.40;99.90;;;;;;4916751;29;20202;-65
2021/04/25 01:16:45;;;;;;;3.10;2.15;;;5.40;99.90;;;;;;4917083;29;20193;-65
2021/04/25 01:19:13;;;;;;;5.43;2.30;;;5.40;99.90;;;;;;4915579;29;20966;-66
2021/04/25 01:21:42;;;;;;;4.22;2.50;;;5.20;99.90;;;;;;4916347;29;20174;-66
2021/04/25 01:24:09;;;;;;;3.45;2.28;;;5.20;99.90;;;;;;4916288;29;20185;-65
2021/04/25 01:26:36;;;;;;;6.80;2.92;;;5.10;99.90;;;;;;4916469;29;20202;-68
2021/04/25 01:29:04;;;;;;;2.83;1.80;;;5.00;99.90;;;;;;4915669;29;20228;-66
2021/04/25 01:31:31;;;;;;;3.47;1.90;;;5.20;99.90;;;;;;4915195;29;20189;-66
2021/04/25 01:33:59;;;;;;;3.47;2.42;;;5.40;99.90;;;;;;4916506;29;20201;-67
2021/04/25 01:36:26;;;;;;;3.53;1.52;;;5.50;99.90;;;;;;4916649;29;20194;-67
2021/04/25 01:38:54;;;;;;;2.53;2.25;;;5.60;99.90;;;;;;4916701;29;20721;-68
2021/04/25 01:41:21;;;;;;;3.25;1.65;;;5.60;99.90;;;;;;4916513;29;20297;-67
2021/04/25 01:43:48;;;;;;;3.65;2.35;;;5.60;99.90;;;;;;4916433;29;20256;-67
2021/04/25 01:46:16;;;;;;;2.15;1.58;;;5.50;99.90;;;;;;4916626;29;20213;-68
2021/04/25 01:48:44;;;;;;;2.85;1.48;;;5.50;99.90;;;;;;4916684;29;20575;-68
2021/04/25 01:51:12;;;;;;;1.75;1.17;;;5.50;99.90;;;;;;4916312;29;20204;-67
2021/04/25 01:53:39;;;;;;;2.80;1.67;;;5.70;99.90;;;;;;4916189;29;20189;-67
2021/04/25 01:56:07;;;;;;;3.58;1.73;;;5.70;99.90;;;;;;4916330;29;20835;-66
2021/04/25 01:58:34;;;;;;;2.10;1.35;;;5.60;99.90;;;;;;4916533;29;20221;-66
2021/04/25 02:01:01;;;;;;;3.10;1.50;;;5.60;99.90;;;;;;4916595;29;20237;-67
2021/04/25 02:03:29;;;;;;;2.13;1.20;;;5.60;99.90;;;;;;4916337;29;20755;-66
2021/04/25 02:05:56;;;;;;;2.67;1.45;;;5.60;99.90;;;;;;4915578;29;20639;-65
2021/04/25 02:08:23;;;;;;;2.63;1.48;;;5.60;99.90;;;;;;4915557;29;20221;-66
2021/04/25 02:10:51;;;;;;;3.45;2.40;;;5.70;99.90;;;;;;4915490;29;20182;-65
2021/04/25 02:13:19;;;;;;;4.95;2.13;;;5.80;99.90;;;;;;4915433;29;20193;-65
2021/04/25 02:15:46;;;;;;;2.40;2.08;;;5.80;99.90;;;;;;4915444;29;20706;-66
2021/04/25 02:18:16;;;;;;;3.60;1.90;;;5.80;99.90;;;;;;4914144;29;20632;-65
2021/04/25 02:20:44;;;;;;;3.97;2.20;;;5.80;99.90;;;;;;4915533;29;20186;-65
2021/04/25 02:23:11;;;;;;;3.15;1.85;;;5.70;99.90;;;;;;4915868;29;20659;-70
2021/04/25 02:25:38;;;;;;;5.05;2.60;;;5.70;99.90;;;;;;4915887;29;20230;-66
2021/04/25 02:28:05;;;;;;;2.45;1.85;;;5.70;99.90;;;;;;4915569;29;20729;-67
2021/04/25 02:30:36;;;;;;;2.28;1.73;;;5.70;99.90;;;;;;4915731;29;20186;-63
2021/04/25 02:33:04;;;;;;;2.85;2.28;;;5.70;99.90;;;;;;4916618;29;20854;-65
2021/04/25 02:35:32;;;;;;;5.57;1.95;;;5.50;99.90;;;;;;4916835;29;20236;-65
2021/04/25 02:38:00;;;;;;;4.07;2.47;;;5.30;99.90;;;;;;4916121;29;20213;-66
2021/04/25 02:40:30;;;;;;;3.53;1.35;;;5.30;99.90;;;;;;4916196;29;20552;-67
2021/04/25 02:42:58;;;;;;;2.83;2.20;;;5.30;99.90;;;;;;4915372;29;20566;-68
2021/04/25 02:45:26;;;;;;;3.58;2.70;;;4.90;99.90;;;;;;4915732;29;20264;-66
2021/04/25 02:47:58;;;;;;;5.75;3.25;;;4.70;99.90;;;;;;4916058;29;20308;-66
2021/04/25 02:50:30;;;;;;;2.10;1.90;;;4.60;99.90;;;;;;4915436;29;20189;-67
2021/04/25 02:52:57;;;;;;;5.07;3.13;;;4.40;99.90;;;;;;4915100;29;20200;-67
2021/04/25 02:55:25;;;;;;;4.20;2.03;;;4.20;99.90;;;;;;4915512;29;20216;-65
2021/04/25 02:57:52;;;;;;;2.33;1.92;;;4.10;99.90;;;;;;4915079;29;20576;-68
2021/04/25 03:00:23;;;;;;;2.22;1.33;;;4.10;99.90;;;;;;4915067;29;20193;-66
2021/04/25 03:02:50;;;;;;;2.85;2.13;;;4.00;99.90;;;;;;4915537;29;20188;-67
2021/04/25 03:05:18;;;;;;;2.75;2.08;;;4.00;99.90;;;;;;4915956;29;20224;-68
2021/04/25 03:07:46;;;;;;;2.20;1.65;;;4.00;99.90;;;;;;4915646;29;20219;-68
2021/04/25 03:10:15;;;;;;;2.85;1.85;;;3.90;99.90;;;;;;4915376;29;20181;-68
2021/04/25 03:12:42;;;;;;;2.75;2.03;;;4.00;99.90;;;;;;4915191;29;20268;-68
2021/04/25 03:15:11;;;;;;;4.22;2.00;;;4.20;99.90;;;;;;4915534;29;20674;-68
2021/04/25 03:17:39;;;;;;;1.65;1.40;;;4.20;99.90;;;;;;4915412;29;20213;-67
2021/04/25 03:20:08;;;;;;;2.30;1.30;;;4.40;99.90;;;;;;4915622;29;20780;-68
2021/04/25 03:22:37;;;;;;;2.70;1.20;;;4.50;99.90;;;;;;4915520;29;20241;-68
2021/04/25 03:25:05;;;;;;;2.83;2.20;;;4.70;99.90;;;;;;4915667;29;20182;-68
2021/04/25 03:27:32;;;;;;;4.93;4.38;;;4.70;99.90;;;;;;4914443;29;20316;-68
2021/04/25 03:29:59;;;;;;;2.25;2.05;;;4.80;99.90;;;;;;4914607;29;20197;-65
2021/04/25 03:32:26;;;;;;;4.03;2.53;;;4.80;99.90;;;;;;4913421;29;20188;-66
2021/04/25 03:34:54;;;;;;;4.28;2.80;;;4.70;99.90;;;;;;4913895;29;20650;-66
2021/04/25 03:37:21;;;;;;;2.60;2.40;;;4.60;99.90;;;;;;4915462;29;20296;-68
2021/04/25 03:39:49;;;;;;;4.20;2.30;;;4.50;99.90;;;;;;4915777;29;20583;-69
2021/04/25 03:42:16;;;;;;;4.75;3.10;;;4.30;99.90;;;;;;4915693;29;20217;-69
2021/04/25 03:44:43;;;;;;;5.78;2.85;;;4.20;99.90;;;;;;4915541;29;20178;-69
2021/04/25 03:47:10;;;;;;;4.55;2.80;;;4.10;99.90;;;;;;4915780;29;20726;-69
2021/04/25 03:49:38;;;;;;;1.92;1.48;;;3.90;99.90;;;;;;4915671;29;20177;-68
2021/04/25 03:52:07;;;;;;;3.85;2.25;;;3.70;99.90;;;;;;4917933;29;20182;-66
2021/04/25 03:54:34;;;;;;;8.90;3.85;;;3.70;99.90;;;;;;4918988;29;20213;-68
2021/04/25 03:57:02;;;;;;;4.10;2.60;;;3.70;99.90;;;;;;4918872;29;20185;-67
2021/04/25 03:59:29;;;;;;;3.97;3.05;;;3.70;99.90;;;;;;4918937;29;20199;-68
2021/04/25 04:01:56;;;;;;;3.65;2.65;;;3.80;99.90;;;;;;4918853;29;20178;-69
2021/04/25 04:04:24;;;;;;;5.32;2.58;;;3.90;99.90;;;;;;4918857;29;20269;-67
2021/04/25 04:06:51;;;;;;;3.88;2.75;;;3.80;99.90;;;;;;4917777;29;20750;-69
2021/04/25 04:09:18;;;;;;;4.15;1.92;;;3.80;99.90;;;;;;4918869;29;20264;-68
2021/04/25 04:11:46;;;;;;;4.13;3.83;;;3.80;99.90;;;;;;4918794;29;20203;-69
2021/04/25 04:14:14;;;;;;;2.33;2.13;;;3.90;99.90;;;;;;4918685;29;20188;-68
2021/04/25 04:16:41;;;;;;;5.18;2.35;;;4.00;99.90;;;;;;4918620;29;20185;-68
2021/04/25 04:19:09;;;;;;;4.03;2.47;;;4.00;99.90;;;;;;4918677;29;20213;-69
2021/04/25 04:21:36;;;;;;;4.00;2.90;;;3.90;99.90;;;;;;4918709;29;20184;-67
2021/04/25 04:24:04;;;;;;;3.05;2.67;;;4.00;99.90;;;;;;4918780;29;20527;-69
2021/04/25 04:26:31;;;;;;;4.25;2.28;;;4.00;99.90;;;;;;4918530;29;20209;-68
2021/04/25 04:28:58;;;;;;;9.50;2.85;;;4.20;99.90;;;;;;4918569;29;20580;-66
2021/04/25 04:31:26;;;;;;;4.07;3.03;;;4.40;99.90;;;;;;4918344;29;20264;-67
2021/04/25 04:33:53;;;;;;;2.97;2.20;;;4.40;99.90;;;;;;4918806;29;20178;-67
2021/04/25 04:36:21;;;;;;;5.05;2.78;;;4.30;99.90;;;;;;4918891;29;20569;-67
2021/04/25 04:38:48;;;;;;;2.85;1.80;;;4.40;99.90;;;;;;4918545;29;20554;-66
2021/04/25 04:41:16;;;;;;;9.48;2.58;;;4.50;99.90;;;;;;4918435;29;20261;-67
2021/04/25 04:43:43;;;;;;;2.53;1.88;;;4.60;99.90;;;;;;4918361;29;20178;-66
2021/04/25 04:46:10;;;;;;;2.85;2.30;;;4.60;99.90;;;;;;4918769;29;20188;-68
2021/04/25 04:48:38;;;;;;;3.47;2.50;;;4.80;99.90;;;;;;4918459;29;20213;-67
2021/04/25 04:51:05;;;;;;;2.70;2.45;;;4.90;99.90;;;;;;4918377;29;20602;-68
2021/04/25 04:53:32;;;;;;;2.47;1.90;;;4.90;99.90;;;;;;4918014;29;20198;-68
2021/04/25 04:55:59;;;;;;;5.90;2.95;;;5.00;99.90;;;;;;4917998;29;20206;-68
2021/04/25 04:58:26;;;;;;;3.22;2.13;;;5.10;99.90;;;;;;4917996;29;20217;-68
2021/04/25 05:00:54;;;;;;;5.18;2.33;;;5.20;99.90;;;;;;4918306;29;20194;-68
2021/04/25 05:03:21;;;;;;;3.13;1.88;;;5.30;99.90;;;;;;4916981;29;20213;-67
2021/04/25 05:05:49;;;;;;;8.88;3.08;;;5.40;99.90;;;;;;4917907;29;20197;-67
2021/04/25 05:08:16;;;;;;;7.38;2.45;;;5.60;99.90;;;;;;4917905;29;20214;-69
2021/04/25 05:10:44;;;;;;;3.17;2.50;;;5.70;99.90;;;;;;4917786;29;20209;-69
2021/04/25 05:13:11;;;;;;;3.28;2.47;;;5.70;99.90;;;;;;4917887;29;20181;-67
2021/04/25 05:15:38;;;;;;;8.35;3.00;;;5.70;99.90;;;;;;4916446;29;20308;-68
2021/04/25 05:18:06;;;;;;;3.15;2.85;;;5.80;99.90;;;;;;4918036;29;20706;-69
2021/04/25 05:20:33;;;;;;;2.38;2.15;;;5.80;99.90;;;;;;4916470;29;20672;-67
2021/04/25 05:23:02;;;;;;;5.10;1.95;;;5.80;99.90;;;;;;4917532;29;20199;-67
2021/04/25 05:25:29;;;;;;;5.60;3.08;;;5.80;99.90;;;;;;4917405;29;20189;-67
2021/04/25 05:27:57;;;;;;;4.22;2.78;;;5.90;99.90;;;;;;4917313;29;20261;-69
2021/04/25 05:30:24;;;;;;;6.50;3.20;;;5.80;99.90;;;;;;4916239;29;20196;-66
2021/04/25 05:32:51;;;;;;;4.18;3.47;;;5.60;99.90;;;;;;4915665;29;20625;-69
2021/04/25 05:35:19;;;;;;;8.68;2.70;;;5.40;99.90;;;;;;4915722;29;20763;-64
2021/04/25 05:37:46;;;;;;;6.20;2.38;;;5.40;99.90;;;;;;4915470;29;20213;-67
2021/04/25 05:40:15;;;;;;;3.22;2.30;;;5.40;99.90;;;;;;4915614;29;20265;-63
2021/04/25 05:42:42;;;;;;;3.35;2.65;;;5.50;99.90;;;;;;4913917;29;20214;-66
2021/04/25 05:45:20;;;;;;;3.45;2.55;;;5.60;99.90;;;;;;4915318;29;20200;-70
2021/04/25 05:47:49;;;;;;;2.40;1.98;;;5.80;99.90;;;;;;4915004;29;20702;-65
2021/04/25 05:50:17;;;;;;;7.72;1.90;;;6.00;99.90;;;;;;4913748;29;20194;-65
2021/04/25 05:52:44;;;;;;;6.60;2.25;;;6.20;99.90;;;;;;4915007;29;20612;-68
2021/04/25 05:55:12;;;;;;;5.13;1.90;;;6.30;99.90;;;;;;4915197;29;20194;-65
2021/04/25 05:57:41;;;;;;;3.05;1.60;;;6.20;99.90;;;;;;4914724;29;20209;-67
2021/04/25 06:00:09;;;;;;;2.83;2.05;;;6.20;99.90;;;;;;4914893;29;20193;-65
2021/04/25 06:02:37;;;;;;;7.35;2.45;;;6.20;99.90;;;;;;4914703;29;20196;-67
2021/04/25 06:05:05;;;;;;;4.85;2.55;;;6.30;99.90;;;;;;4914500;29;20755;-69
2021/04/25 06:07:32;;;;;;;2.05;1.73;;;6.50;99.90;;;;;;4914943;29;20824;-67
2021/04/25 06:09:59;;;;;;;3.15;1.58;;;6.60;99.90;;;;;;4915145;29;20185;-66
2021/04/25 06:12:26;;;;;;;3.58;1.83;;;6.70;99.90;;;;;;4914898;29;20280;-68
2021/04/25 06:14:54;;;;;;;3.03;1.55;;;6.60;99.90;;;;;;4914374;29;20329;-65
2021/04/25 06:17:21;;;;;;;3.70;1.60;;;6.70;99.90;;;;;;4914665;29;20206;-66
2021/04/25 06:19:49;;;;;;;3.92;2.10;;;6.80;99.90;;;;;;4914521;29;20193;-66
2021/04/25 06:22:16;;;;;;;6.10;5.40;;;7.10;99.90;;;;;;4914243;29;20185;-66
2021/04/25 06:24:43;;;;;;;4.28;1.40;;;7.20;99.90;;;;;;4914340;29;20200;-66
2021/04/25 06:27:10;;;;;;;2.00;1.23;;;7.30;99.90;;;;;;4914226;29;20690;-68
2021/04/25 06:29:38;;;;;;;3.70;2.17;;;7.30;99.90;;;;;;4914369;29;20197;-65
2021/04/25 06:32:06;;;;;;;4.45;2.13;;;7.20;99.90;;;;;;4914224;29;20212;-68
2021/04/25 06:34:34;;;;;;;16.85;15.40;;;7.20;99.90;;;;;;4914173;29;20237;-65
2021/04/25 06:37:01;;;;;;;3.92;1.83;;;7.30;99.90;;;;;;4913926;29;20181;-68
2021/04/25 06:39:28;;;;;;;6.82;2.10;;;7.30;99.90;;;;;;4914026;29;20196;-65
2021/04/25 06:41:55;;;;;;;3.13;1.30;;;7.40;99.90;;;;;;4914031;29;20189;-69
2021/04/25 06:44:22;;;;;;;3.55;2.20;;;7.50;99.90;;;;;;4914153;29;20188;-65
2021/04/25 06:46:49;;;;;;;5.30;1.63;;;7.60;99.90;;;;;;4914103;29;20178;-67
2021/04/25 06:49:17;;;;;;;3.35;1.80;;;7.70;99.90;;;;;;4913807;29;20286;-65
2021/04/25 06:51:46;;;;;;;1.75;1.40;;;7.80;99.90;;;;;;4913739;29;20209;-64
2021/04/25 06:54:13;;;;;;;2.28;1.20;;;7.90;99.90;;;;;;4914008;29;20193;-66
2021/04/25 06:56:42;;;;;;;1.42;1.10;;;7.90;99.90;;;;;;4913922;29;20717;-65
2021/04/25 06:59:09;;;;;;;1.67;1.23;;;8.00;99.90;;;;;;4914277;29;20220;-68
2021/04/25 07:01:37;;;;;;;4.40;1.70;;;8.10;99.90;;;;;;4914224;29;20292;-65
2021/04/25 07:04:05;;;;;;;2.85;1.50;;;8.30;99.90;;;;;;4913655;29;20192;-66
2021/04/25 07:06:33;;;;;;;2.00;1.10;;;8.40;99.90;;;;;;4902610;29;20557;-67
2021/04/25 07:09:01;;;;;;;2.75;1.35;;;8.20;99.90;;;;;;4901425;29;20213;-67
2021/04/25 07:11:28;;;;;;;1.60;1.05;;;7.90;99.90;;;;;;4914126;29;20543;-67
2021/04/25 07:13:55;;;;;;;1.40;1.10;;;7.90;99.90;;;;;;4913928;29;20197;-65
2021/04/25 07:16:23;;;;;;;1.10;0.90;;;7.90;99.90;;;;;;4914283;29;20205;-65
2021/04/25 07:18:51;;;;;;;1.63;1.25;;;8.00;99.90;;;;;;4914171;29;20797;-65
2021/04/25 07:21:18;;;;;;;1.20;0.95;;;8.00;99.90;;;;;;4914581;29;20197;-69
2021/04/25 07:23:46;;;;;;;2.63;1.42;;;8.30;99.90;;;;;;4915011;29;20200;-65
2021/04/25 07:26:13;;;;;;;1.20;0.93;;;8.50;99.90;;;;;;4913213;29;20566;-65
2021/04/25 07:28:41;;;;;;;1.77;1.50;;;8.50;99.90;;;;;;4917984;29;20224;-68
2021/04/25 07:31:09;;;;;;;2.03;0.90;;;8.40;99.90;;;;;;4916422;29;20479;-65
2021/04/25 07:33:37;;;;;;;4.10;1.20;;;8.40;99.90;;;;;;4917520;29;20548;-65
2021/04/25 07:36:08;;;;;;;3.30;1.20;;;8.40;99.90;;;;;;4917359;29;20281;-65
2021/04/25 07:38:37;;;;;;;2.05;1.63;;;8.30;99.90;;;;;;4917621;29;20300;-66
2021/04/25 07:41:05;;;;;;;2.88;1.35;;;8.30;99.90;;;;;;4917626;29;20190;-64
2021/04/25 07:43:32;;;;;;;3.13;1.80;;;8.50;99.90;;;;;;4917255;29;20285;-65
2021/04/25 07:46:00;;;;;;;1.40;1.27;;;8.50;99.90;;;;;;4917387;29;20693;-66
2021/04/25 07:48:27;;;;;;;2.13;1.10;;;8.20;99.90;;;;;;4917693;29;20209;-66
2021/04/25 07:50:54;;;;;;;2.83;1.40;;;8.00;99.90;;;;;;4918169;29;20550;-66
2021/04/25 07:53:21;;;;;;;0.90;0.70;;;7.90;99.90;;;;;;4918765;29;20198;-66
2021/04/25 07:55:48;;;;;;;4.82;1.10;;;7.90;99.90;;;;;;4919207;29;20213;-66
2021/04/25 07:58:16;;;;;;;3.22;2.55;;;7.80;99.90;;;;;;4919753;29;20281;-66
2021/04/25 08:00:44;;;;;;;8.25;1.50;;;7.60;99.90;;;;;;4918879;29;20213;-64
2021/04/25 08:03:11;;;;;;;2.30;1.20;;;7.20;99.90;;;;;;4921131;29;20197;-68
2021/04/25 08:05:38;;;;;;;2.33;1.35;;;7.30;99.90;;;;;;4921218;29;20189;-66
2021/04/25 08:08:06;;;;;;;2.72;2.40;;;7.60;99.90;;;;;;4917476;29;20320;-67
2021/04/25 08:10:33;;;;;;;1.83;0.90;;;7.60;99.90;;;;;;4919701;29;20201;-67
2021/04/25 08:13:00;;;;;;;2.47;1.30;;;7.60;99.90;;;;;;4919437;29;20237;-66
2021/04/25 08:15:29;;;;;;;1.40;0.95;;;7.60;99.90;;;;;;4917718;29;20234;-67
2021/04/25 08:17:56;;;;;;;2.25;1.25;;;7.80;99.90;;;;;;4917727;29;20229;-65
2021/04/25 08:20:24;;;;;;;5.18;1.35;;;7.80;99.90;;;;;;4922314;29;20201;-65
2021/04/25 08:22:52;;;;;;;3.13;1.00;;;7.70;99.90;;;;;;4917457;29;20280;-67
2021/04/25 08:25:19;;;;;;;2.05;1.55;;;7.80;99.90;;;;;;4897612;29;20648;-66
2021/04/25 08:27:46;;;;;;;2.08;1.00;;;7.90;99.90;;;;;;4897622;29;20567;-67
2021/04/25 08:30:15;;;;;;;1.35;0.90;;;7.70;99.90;;;;;;4899343;29;20206;-67
2021/04/25 08:32:43;;;;;;;1.30;1.00;;;7.40;99.90;;;;;;4899115;29;20615;-67
2021/04/25 08:35:11;;;;;;;2.42;1.65;;;7.60;99.90;;;;;;4899054;29;20566;-66
2021/04/25 08:37:38;;;;;;;2.67;1.20;;;7.20;99.90;;;;;;4898507;29;20221;-66
2021/04/25 08:40:07;;;;;;;4.10;1.35;;;7.10;99.90;;;;;;4898876;29;20182;-66
2021/04/25 08:42:34;;;;;;;1.50;1.30;;;6.90;99.90;;;;;;4898529;29;20206;-67
2021/04/25 08:45:03;;;;;;;3.75;1.65;;;7.00;99.90;;;;;;4898156;29;20556;-66
2021/04/25 08:47:31;;;;;;;3.35;1.40;;;6.90;99.90;;;;;;4898342;29;20241;-67
2021/04/25 08:50:01;;;;;;;1.80;1.00;;;7.30;99.90;;;;;;4898449;29;20178;-69
2021/04/25 08:52:28;;;;;;;1.90;1.33;;;7.50;99.90;;;;;;4898031;29;20194;-66
2021/04/25 08:54:56;;;;;;;3.03;1.33;;;7.70;99.90;;;;;;4898440;29;20201;-69
2021/04/25 08:57:23;;;;;;;1.60;1.10;;;7.60;99.90;;;;;;4897891;29;20210;-70
2021/04/25 08:59:50;;;;;;;3.28;1.70;;;7.50;99.90;;;;;;4898402;29;20197;-68
2021/04/25 09:02:17;;;;;;;2.22;1.70;;;7.10;99.90;;;;;;4908395;29;20188;-69
2021/04/25 09:04:44;;;;;;;2.10;1.30;;;6.70;99.90;;;;;;4937076;29;20595;-69
2021/04/25 09:07:16;;;;;;;2.13;1.88;;;6.70;99.90;;;;;;4936831;29;20255;-70
2021/04/25 09:09:47;;;;;;;14.15;10.32;;;6.60;99.90;;;;;;4937108;29;20201;-68
2021/04/25 09:12:31;;;;;;;4.70;2.72;;;6.80;99.90;;;;;;4936996;29;20598;-66
2021/04/25 09:14:59;;;;;;;2.88;1.60;;;6.90;99.90;;;;;;4936545;29;20654;-68
2021/04/25 09:17:27;;;;;;;2.78;2.00;;;6.90;99.90;;;;;;4925467;29;20241;-68
2021/04/25 09:19:57;;;;;;;3.40;2.90;;;6.90;99.90;;;;;;4917393;29;20257;-67
2021/04/25 09:22:42;;;;;;;2.35;1.35;;;6.90;99.90;;;;;;4917188;29;20182;-69
2021/04/25 09:25:10;;;;;;;4.97;1.63;;;6.70;99.90;;;;;;4916783;29;20272;-70
2021/04/25 09:27:40;;;;;;;2.47;1.45;;;6.80;99.90;;;;;;4917068;29;20225;-68
2021/04/25 09:30:09;;;;;;;4.72;1.90;;;6.80;99.90;;;;;;4909450;29;20276;-66
2021/04/25 09:32:36;;;;;;;3.05;1.55;;;6.90;99.90;;;;;;4917044;29;20249;-67
2021/04/25 09:35:09;;;;;;;2.58;1.60;;;7.30;99.90;;;;;;4917249;29;20272;-67
2021/04/25 09:37:41;;;;;;;1.90;1.00;;;7.50;99.90;;;;;;4917149;29;20304;-68
2021/04/25 09:40:10;;;;;;;1.90;1.42;;;7.70;99.90;;;;;;4917187;29;20186;-68
2021/04/25 09:43:02;;;;;;;3.33;2.22;;;7.90;99.90;;;;;;4917243;29;20217;-67
2021/04/25 09:45:32;;;;;;;2.05;1.17;;;8.40;99.90;;;;;;4917077;29;20277;-68
2021/04/25 09:48:01;;;;;;;3.65;1.40;;;8.80;99.90;;;;;;4916883;29;20214;-67
2021/04/25 09:50:31;;;;;;;2.00;1.30;;;9.30;99.90;;;;;;4916477;29;20205;-69
2021/04/25 09:53:01;;;;;;;2.45;1.55;;;9.60;99.90;;;;;;4916484;29;20197;-68
2021/04/25 09:55:32;;;;;;;3.10;1.90;;;9.90;99.90;;;;;;4916884;29;20566;-69
2021/04/25 09:58:07;;;;;;;2.45;2.20;;;9.90;99.90;;;;;;4916426;29;20308;-68
2021/04/25 10:00:40;;;;;;;1.65;1.10;;;9.80;99.90;;;;;;4917421;29;20593;-70
2021/04/25 10:03:09;;;;;;;3.10;1.30;;;10.00;99.90;;;;;;4915631;29;20667;-70
2021/04/25 10:05:39;;;;;;;2.10;1.35;;;9.60;99.90;;;;;;4916796;29;20177;-68
2021/04/25 10:08:07;;;;;;;3.10;1.70;;;9.90;99.90;;;;;;4916661;29;20722;-68
2021/04/25 10:10:36;;;;;;;2.33;1.40;;;10.10;99.90;;;;;;4916349;29;20178;-72
2021/04/25 10:13:03;;;;;;;2.22;1.83;;;10.20;99.90;;;;;;4916118;29;20193;-68
2021/04/25 10:15:31;;;;;;;5.90;1.75;;;10.30;99.90;;;;;;4916554;29;20224;-68
2021/04/25 10:17:58;;;;;;;1.33;1.23;;;10.40;99.90;;;;;;4916136;29;20273;-68
2021/04/25 10:20:26;;;;;;;2.00;1.50;;;10.20;99.90;;;;;;4915149;29;20198;-68
2021/04/25 10:22:54;;;;;;;1.52;1.10;;;10.40;99.90;;;;;;4916825;29;20186;-68
2021/04/25 10:25:33;;;;;;;2.53;1.27;;;10.30;99.90;;;;;;4916243;29;20565;-69
2021/04/25 10:28:03;;;;;;;1.75;1.00;;;10.50;99.90;;;;;;4917482;29;20736;-69
2021/04/25 10:30:36;;;;;;;1.20;1.00;;;10.90;99.90;;;;;;4916953;29;20193;-68
2021/04/25 10:33:03;;;;;;;1.58;0.98;;;10.80;99.90;;;;;;4916857;29;20189;-69
2021/04/25 10:35:34;;;;;;;1.60;1.02;;;10.70;99.90;;;;;;4916282;29;20232;-69
2021/04/25 10:38:02;;;;;;;2.08;1.20;;;10.50;99.90;;;;;;4916495;29;20252;-69
2021/04/25 10:40:36;;;;;;;3.35;1.55;;;10.40;99.90;;;;;;4916922;29;20178;-67
2021/04/25 10:43:08;;;;;;;3.25;1.23;;;10.20;99.90;;;;;;4916049;29;20206;-72
2021/04/25 10:45:55;;;;;;;1.65;0.98;;;10.40;99.90;;;;;;4916477;29;20652;-69
2021/04/25 10:48:30;;;;;;;2.70;1.27;;;10.60;99.90;;;;;;4915823;29;20210;-68
2021/04/25 10:51:18;;;;;;;2.08;0.80;;;10.60;99.90;;;;;;4915469;29;20204;-69
2021/04/25 10:53:47;;;;;;;3.17;2.05;;;10.50;99.90;;;;;;4915954;29;20198;-66
2021/04/25 10:56:26;;;;;;;2.05;1.60;;;10.40;99.90;;;;;;4915429;29;20292;-67
2021/04/25 10:59:26;;;;;;;5.75;1.48;;;10.20;99.90;;;;;;4915803;29;20220;-68
2021/04/25 11:02:03;;;;;;;1.80;1.25;;;10.60;99.90;;;;;;4917810;29;20280;-67
2021/04/25 11:05:04;;;;;;;2.50;1.88;;;10.60;99.90;;;;;;4920157;29;20204;-66
2021/04/25 11:07:41;;;;;;;4.03;1.15;;;10.40;99.90;;;;;;4919755;29;20209;-67
2021/04/25 11:10:09;;;;;;;3.70;0.90;;;10.40;99.90;;;;;;4901108;29;20668;-67
2021/04/25 11:12:44;;;;;;;2.78;1.75;;;10.40;99.90;;;;;;4900411;29;20186;-67
2021/04/25 11:15:50;;;;;;;3.88;2.03;;;9.90;99.90;;;;;;4900905;29;20606;-66
2021/04/25 11:18:49;;;;;;;1.30;1.10;;;10.10;99.90;;;;;;4900509;29;20228;-67
2021/04/25 11:21:53;;;;;;;1.75;1.02;;;10.10;99.90;;;;;;4905551;29;20190;-66
2021/04/25 11:24:46;;;;;;;4.20;1.80;;;9.90;99.90;;;;;;4919666;29;20197;-67
2021/04/25 11:27:33;;;;;;;1.52;1.00;;;9.80;99.90;;;;;;4918677;29;20284;-68
2021/04/25 11:30:02;;;;;;;5.85;2.10;;;9.70;99.90;;;;;;4919185;29;20206;-67
2021/04/25 11:32:35;;;;;;;7.45;2.80;;;10.00;99.90;;;;;;4917352;29;20190;-67
2021/04/25 11:35:20;;;;;;;2.80;1.30;;;10.10;99.90;;;;;;4913918;28;20540;-68
2021/04/25 11:37:48;;;;;;;2.75;1.30;;;10.00;99.90;;;;;;4921528;29;20476;-68
2021/04/25 11:40:22;;;;;;;2.38;1.15;;;9.90;99.90;;;;;;4918536;29;20201;-67
2021/04/25 11:42:50;;;;;;;2.17;1.10;;;10.20;99.90;;;;;;4918976;29;20557;-71
2021/04/25 11:45:21;;;;;;;3.22;2.03;;;10.80;99.90;;;;;;4918342;29;20599;-68
2021/04/25 11:47:50;;;;;;;0.80;0.60;;;11.20;99.90;;;;;;4918666;29;20225;-66
2021/04/25 11:50:18;;;;;;;2.75;1.08;;;11.30;99.90;;;;;;4918660;29;20599;-71
2021/04/25 11:52:47;;;;;;;2.03;1.20;;;11.50;99.90;;;;;;4918777;29;20189;-68
2021/04/25 11:55:18;;;;;;;2.85;1.63;;;11.40;99.90;;;;;;4918552;29;20559;-68
2021/04/25 11:57:49;;;;;;;2.65;1.38;;;11.20;99.90;;;;;;4918419;29;20261;-69
2021/04/25 12:00:19;;;;;;;3.00;1.55;;;10.50;99.90;;;;;;4918063;29;20177;-69
2021/04/25 12:02:52;;;;;;;2.80;2.58;;;10.50;99.90;;;;;;4917847;29;20184;-68
2021/04/25 12:05:22;;;;;;;1.90;1.40;;;10.60;99.90;;;;;;4918542;29;20174;-69
2021/04/25 12:07:52;;;;;;;1.88;0.80;;;10.80;99.90;;;;;;4918111;29;20213;-71
2021/04/25 12:10:33;;;;;;;1.48;0.90;;;10.60;99.90;;;;;;4918698;29;20233;-70
2021/04/25 12:13:10;;;;;;;2.47;1.20;;;10.50;99.90;;;;;;4917896;29;20244;-68
2021/04/25 12:15:48;;;;;;;1.40;0.80;;;10.50;99.90;;;;;;4918051;29;20181;-70
2021/04/25 12:18:17;;;;;;;1.85;0.82;;;10.50;99.90;;;;;;4899350;29;20242;-68
2021/04/25 12:20:47;;;;;;;0.90;0.60;;;10.40;99.90;;;;;;4899337;29;20194;-69
2021/04/25 12:23:17;;;;;;;2.95;1.08;;;10.00;99.90;;;;;;4898817;29;20201;-70
2021/04/25 12:25:45;;;;;;;1.52;0.90;;;10.10;99.90;;;;;;4898834;29;20194;-69
2021/04/25 12:28:12;;;;;;;3.15;1.80;;;10.20;99.90;;;;;;4898863;29;20214;-69
2021/04/25 12:30:44;;;;;;;1.95;1.70;;;10.30;99.90;;;;;;4898985;29;20216;-71
2021/04/25 12:33:13;;;;;;;1.77;1.23;;;10.40;99.90;;;;;;4909125;29;20283;-70
2021/04/25 12:35:41;;;;;;;0.90;0.60;;;10.70;99.90;;;;;;4917750;29;20205;-69
2021/04/25 12:38:24;;;;;;;2.10;1.10;;;10.80;99.90;;;;;;4917422;29;20213;-70
2021/04/25 12:40:56;;;;;;;1.15;0.80;;;10.70;99.90;;;;;;4917917;29;20209;-69
2021/04/25 12:43:24;;;;;;;2.97;0.77;;;10.90;99.90;;;;;;4917467;29;20887;-69
2021/04/25 12:45:52;;;;;;;2.90;1.63;;;11.10;99.90;;;;;;4917684;29;20189;-70
2021/04/25 12:48:38;;;;;;;1.27;0.95;;;11.70;99.90;;;;;;4917488;29;20690;-69
2021/04/25 12:51:15;;;;;;;1.10;0.60;;;11.90;99.90;;;;;;4917522;29;20200;-71
2021/04/25 12:53:45;;;;;;;2.20;1.40;;;11.70;99.90;;;;;;4917598;29;20186;-65
2021/04/25 12:56:26;;;;;;;1.60;0.80;;;11.60;99.90;;;;;;4918702;29;20986;-67
2021/04/25 12:59:02;;;;;;;1.85;0.77;;;11.30;99.90;;;;;;4919312;29;20244;-69
2021/04/25 13:01:31;;;;;;;1.00;0.70;;;11.00;99.90;;;;;;4921099;29;20178;-69
2021/04/25 13:04:00;;;;;;;1.05;0.85;;;10.80;99.90;;;;;;4922805;29;20564;-66
2021/04/25 13:06:29;;;;;;;1.00;0.60;;;10.60;99.90;;;;;;4921326;29;20267;-68